Time;durP1;ratioP1;P1;durP2;ratioP2;P2;SDS_P1;SDS_P2;PMS_P1;PMS_P2;Temp;Humidity;BMP_temperature;BMP_pressure;BME280_temperature;BME280_humidity;BME280_pressure;Samples;Min_cycle;Max_cycle;Signal;HPM_P1;HPM_P2
2022/01/07 00:02:09;;;;;;;17.60;5.90;;;;;;;-3.10;75.97;100299.39;105806;1276;139101;-71
2022/01/07 00:04:42;;;;;;;13.70;6.20;;;;;;;-3.13;75.61;100299.99;105857;1276;108549;-71
2022/01/07 00:07:14;;;;;;;12.80;5.70;;;;;;;-3.18;75.81;100303.63;105797;1276;138662;-70
2022/01/07 00:09:45;;;;;;;12.50;6.20;;;;;;;-3.21;75.91;100307.45;105890;1276;97840;-70
2022/01/07 00:12:21;;;;;;;17.90;6.40;;;;;;;-3.23;76.43;100304.52;105908;1276;138577;-70
2022/01/07 00:14:53;;;;;;;15.10;6.90;;;;;;;-3.22;76.25;100305.06;106094;1276;112527;-71
2022/01/07 00:17:25;;;;;;;15.50;6.50;;;;;;;-3.20;76.61;100307.50;106019;1276;108867;-70
2022/01/07 00:19:57;;;;;;;17.00;7.00;;;;;;;-3.16;76.58;100305.02;105919;1276;138391;-70
2022/01/07 00:22:29;;;;;;;15.20;6.90;;;;;;;-3.12;76.81;100305.13;106032;1276;97966;-70
2022/01/07 00:25:00;;;;;;;16.60;6.60;;;;;;;-3.11;76.49;100308.03;105951;1276;139099;-71
2022/01/07 00:27:33;;;;;;;17.30;6.70;;;;;;;-3.13;76.37;100312.77;106055;1276;112670;-70
2022/01/07 00:30:07;;;;;;;16.30;7.00;;;;;;;-3.13;76.59;100310.56;106043;1276;108001;-71
2022/01/07 00:32:39;;;;;;;18.50;7.30;;;;;;;-3.16;76.55;100315.74;107437;1276;137897;-71
2022/01/07 00:35:14;;;;;;;17.40;7.20;;;;;;;-3.18;76.72;100319.45;107362;1277;95884;-70
2022/01/07 00:37:47;;;;;;;16.70;6.60;;;;;;;-3.19;76.76;100317.22;107225;1276;138508;-71
2022/01/07 00:40:21;;;;;;;16.80;7.60;;;;;;;-3.23;76.73;100323.92;106022;1276;112537;-70
2022/01/07 00:42:53;;;;;;;14.60;6.50;;;;;;;-3.27;76.95;100328.40;105913;1276;139309;-70
2022/01/07 00:45:26;;;;;;;16.20;6.60;;;;;;;-3.28;77.12;100329.22;105997;1276;107931;-70
2022/01/07 00:47:58;;;;;;;14.20;6.20;;;;;;;-3.27;77.08;100330.42;106025;1276;97836;-69
2022/01/07 00:50:31;;;;;;;14.90;6.40;;;;;;;-3.24;77.27;100335.27;107274;1275;139617;-69
2022/01/07 00:53:03;;;;;;;14.20;6.40;;;;;;;-3.22;77.40;100336.38;107562;1276;111454;-70
2022/01/07 00:55:36;;;;;;;13.60;6.40;;;;;;;-3.19;77.68;100336.94;106915;1275;138488;-70
2022/01/07 00:58:09;;;;;;;16.40;6.20;;;;;;;-3.17;77.55;100337.14;106011;1276;108882;-70
2022/01/07 01:00:41;;;;;;;14.50;6.20;;;;;;;-3.16;77.73;100341.09;107456;1276;138244;-70
2022/01/07 01:03:12;;;;;;;12.90;5.80;;;;;;;-3.15;77.72;100338.90;107532;1276;96127;-70
2022/01/07 01:05:45;;;;;;;14.20;6.00;;;;;;;-3.13;77.80;100340.48;107532;1276;111800;-69
2022/01/07 01:08:17;;;;;;;13.70;6.00;;;;;;;-3.15;77.45;100341.46;106628;1276;137948;-69
2022/01/07 01:10:50;;;;;;;18.50;7.30;;;;;;;-3.18;77.51;100344.10;105993;1276;107116;-72
2022/01/07 01:13:22;;;;;;;13.10;5.50;;;;;;;-3.20;77.80;100345.41;105904;1276;139148;-71
2022/01/07 01:15:54;;;;;;;15.10;6.20;;;;;;;-3.23;77.56;100338.88;106002;1276;97798;-71
2022/01/07 01:18:25;;;;;;;16.20;6.20;;;;;;;-3.23;77.82;100335.81;105855;1276;139841;-71
2022/01/07 01:20:58;;;;;;;13.60;6.10;;;;;;;-3.20;78.19;100330.80;106054;1276;107895;-70
2022/01/07 01:23:30;;;;;;;14.90;5.70;;;;;;;-3.17;78.08;100329.67;107530;1275;109177;-70
2022/01/07 01:26:02;;;;;;;14.80;6.00;;;;;;;-3.15;78.38;100325.14;107432;1275;138301;-70
2022/01/07 01:28:34;;;;;;;13.90;6.40;;;;;;;-3.15;78.31;100327.17;107544;1276;95889;-70
2022/01/07 01:31:05;;;;;;;16.50;6.40;;;;;;;-3.14;78.33;100322.77;107448;1276;138405;-70
2022/01/07 01:33:37;;;;;;;15.30;6.50;;;;;;;-3.13;78.18;100328.91;107532;1274;108779;-70
2022/01/07 01:36:09;;;;;;;14.30;6.60;;;;;;;-3.11;78.06;100329.13;107434;1276;109073;-70
2022/01/07 01:38:42;;;;;;;15.10;7.10;;;;;;;-3.14;77.90;100328.89;107067;1276;138040;-69
2022/01/07 01:41:14;;;;;;;16.60;7.10;;;;;;;-3.20;78.34;100329.77;106023;1276;97887;-70
2022/01/07 01:43:48;;;;;;;15.20;7.10;;;;;;;-3.23;78.13;100331.59;105811;1276;137956;-70
2022/01/07 01:46:21;;;;;;;14.90;6.70;;;;;;;-3.23;78.52;100330.88;105972;1276;109190;-70
2022/01/07 01:48:53;;;;;;;15.00;6.30;;;;;;;-3.22;78.33;100340.25;105854;1276;139043;-70
2022/01/07 01:51:25;;;;;;;17.40;6.80;;;;;;;-3.20;78.22;100342.34;106007;1276;97824;-70
2022/01/07 01:53:57;;;;;;;16.30;7.00;;;;;;;-3.18;78.52;100341.71;105983;1274;97842;-70
2022/01/07 01:56:28;;;;;;;14.80;7.30;;;;;;;-3.18;78.59;100346.33;105887;1276;139398;-70
2022/01/07 01:59:01;;;;;;;17.40;7.00;;;;;;;-3.17;78.50;100348.36;106064;1276;108838;-70
2022/01/07 02:01:34;;;;;;;15.90;6.90;;;;;;;-3.18;78.62;100349.03;105864;1276;138369;-73
2022/01/07 02:04:06;;;;;;;13.60;6.90;;;;;;;-3.22;78.56;100357.08;106902;1274;96431;-71
2022/01/07 02:06:38;;;;;;;16.40;7.50;;;;;;;-3.32;78.31;100354.46;107414;1275;138372;-70
2022/01/07 02:09:10;;;;;;;17.50;6.90;;;;;;;-3.39;78.51;100353.96;106771;1276;112532;-70
2022/01/07 02:11:42;;;;;;;16.50;7.30;;;;;;;-3.44;78.51;100361.79;106031;1276;108861;-70
2022/01/07 02:14:14;;;;;;;19.40;6.80;;;;;;;-3.47;78.47;100361.88;105914;1276;140088;-69
2022/01/07 02:16:46;;;;;;;14.30;6.40;;;;;;;-3.49;78.51;100366.77;105980;1276;97933;-69
2022/01/07 02:19:18;;;;;;;14.60;6.30;;;;;;;-3.50;78.42;100367.77;105898;1276;138440;-69
2022/01/07 02:21:49;;;;;;;15.30;6.40;;;;;;;-3.48;78.70;100366.95;106058;1276;112730;-71
2022/01/07 02:24:21;;;;;;;15.10;6.30;;;;;;;-3.45;78.63;100364.65;105833;1276;138101;-69
2022/01/07 02:26:53;;;;;;;14.40;6.70;;;;;;;-3.43;78.93;100365.21;106057;1276;109689;-68
2022/01/07 02:29:26;;;;;;;13.00;6.80;;;;;;;-3.42;78.78;100363.89;106024;1276;97844;-69
2022/01/07 02:31:58;;;;;;;14.60;7.30;;;;;;;-3.42;78.52;100368.14;106363;1276;138730;-69
2022/01/07 02:34:30;;;;;;;13.50;6.40;;;;;;;-3.42;78.63;100371.54;106193;1276;112400;-69
2022/01/07 02:37:02;;;;;;;14.50;6.60;;;;;;;-3.46;78.80;100372.11;105952;1276;138440;-69
2022/01/07 02:39:34;;;;;;;19.40;7.30;;;;;;;-3.52;78.42;100376.39;106016;1273;108871;-69
2022/01/07 02:42:08;;;;;;;14.60;6.30;;;;;;;-3.57;78.70;100373.70;106078;1276;98569;-69
2022/01/07 02:44:40;;;;;;;9.60;5.20;;;;;;;-3.59;78.67;100374.33;107402;1275;138339;-68
2022/01/07 02:47:11;;;;;;;11.50;6.00;;;;;;;-3.59;78.45;100378.77;106048;1276;112080;-69
2022/01/07 02:49:43;;;;;;;13.20;5.40;;;;;;;-3.58;78.67;100378.27;105900;1275;139335;-69
2022/01/07 02:52:15;;;;;;;12.90;5.80;;;;;;;-3.55;78.91;100381.23;106907;1276;108722;-70
2022/01/07 02:54:47;;;;;;;11.20;5.30;;;;;;;-3.52;78.47;100380.29;107204;1276;138670;-70
2022/01/07 02:57:19;;;;;;;14.10;5.90;;;;;;;-3.52;78.34;100379.27;106084;1276;98062;-70
2022/01/07 02:59:51;;;;;;;13.80;6.20;;;;;;;-3.49;78.52;100380.17;107556;1276;112325;-69
2022/01/07 03:02:22;;;;;;;16.10;6.40;;;;;;;-3.50;78.33;100386.63;106299;1276;138763;-70
2022/01/07 03:04:54;;;;;;;17.50;6.40;;;;;;;-3.53;78.16;100384.17;106035;1276;108865;-70
2022/01/07 03:07:28;;;;;;;16.00;6.20;;;;;;;-3.57;78.28;100384.58;105911;1273;138664;-70
2022/01/07 03:10:00;;;;;;;14.00;6.20;;;;;;;-3.61;78.07;100377.64;106075;1276;97897;-70
2022/01/07 03:12:32;;;;;;;11.00;5.60;;;;;;;-3.68;78.11;100383.11;105990;1276;139733;-70
2022/01/07 03:15:05;;;;;;;11.90;6.50;;;;;;;-3.72;78.06;100380.27;106593;1276;108809;-70
2022/01/07 03:17:37;;;;;;;14.30;5.90;;;;;;;-3.72;78.10;100388.26;107522;1276;107796;-71
2022/01/07 03:20:12;;;;;;;14.30;6.10;;;;;;;-3.73;78.24;100387.88;106027;1276;138647;-70
2022/01/07 03:22:45;;;;;;;12.70;6.40;;;;;;;-3.73;78.40;100393.17;107568;1276;96214;-70
2022/01/07 03:25:18;;;;;;;13.50;5.80;;;;;;;-3.70;78.24;100393.23;106801;1276;137804;-69
2022/01/07 03:27:50;;;;;;;13.80;6.30;;;;;;;-3.67;78.21;100393.81;106040;1276;108758;-68
2022/01/07 03:30:22;;;;;;;14.80;6.20;;;;;;;-3.66;77.98;100393.67;105963;1276;138325;-69
2022/01/07 03:32:53;;;;;;;14.70;6.30;;;;;;;-3.68;77.94;100390.57;105979;1276;97894;-69
2022/01/07 03:35:25;;;;;;;13.80;6.40;;;;;;;-3.69;77.98;100395.14;106097;1276;97852;-69
2022/01/07 03:37:57;;;;;;;16.10;6.00;;;;;;;-3.73;77.63;100396.55;105977;1276;137951;-69
2022/01/07 03:40:29;;;;;;;14.00;6.40;;;;;;;-3.78;77.64;100396.73;106039;1276;109379;-69
2022/01/07 03:43:01;;;;;;;15.60;6.10;;;;;;;-3.82;77.73;100397.81;105917;1276;138787;-69
2022/01/07 03:45:33;;;;;;;15.70;5.90;;;;;;;-3.85;77.73;100399.25;105986;1276;97844;-70
2022/01/07 03:48:07;;;;;;;12.40;5.40;;;;;;;-3.90;77.51;100403.72;106113;1276;97826;-70
2022/01/07 03:50:38;;;;;;;12.60;5.80;;;;;;;-3.93;77.99;100401.58;107054;1276;138329;-70
2022/01/07 03:53:10;;;;;;;12.60;6.20;;;;;;;-3.92;77.93;100401.10;106043;1276;108349;-69
2022/01/07 03:55:42;;;;;;;12.10;6.00;;;;;;;-3.94;77.84;100401.91;105934;1276;138815;-69
2022/01/07 03:58:14;;;;;;;15.40;6.10;;;;;;;-3.91;77.98;100404.36;106096;1276;97816;-69
2022/01/07 04:00:47;;;;;;;13.30;7.00;;;;;;;-3.90;77.85;100404.05;105898;1276;137891;-69
2022/01/07 04:03:20;;;;;;;15.40;6.70;;;;;;;-3.89;77.69;100403.91;106035;1276;112692;-69
2022/01/07 04:05:52;;;;;;;14.20;6.80;;;;;;;-3.92;77.85;100399.06;106086;1276;108653;-69
2022/01/07 04:08:23;;;;;;;14.90;6.90;;;;;;;-3.97;77.54;100399.59;105904;1276;139370;-70
2022/01/07 04:10:55;;;;;;;14.90;7.20;;;;;;;-3.99;77.89;100402.77;106019;1276;98400;-70
2022/01/07 04:13:27;;;;;;;16.40;7.20;;;;;;;-4.01;77.89;100402.03;105959;1273;138747;-70
2022/01/07 04:15:58;;;;;;;16.70;7.40;;;;;;;-4.03;77.98;100404.70;106039;1275;112992;-70
2022/01/07 04:18:30;;;;;;;17.20;7.40;;;;;;;-4.06;77.87;100406.98;105937;1276;138920;-70
2022/01/07 04:21:02;;;;;;;17.20;7.50;;;;;;;-4.06;78.22;100404.27;105997;1276;108224;-70
2022/01/07 04:23:34;;;;;;;16.00;7.50;;;;;;;-4.06;78.42;100407.16;106061;1276;97828;-70
2022/01/07 04:26:06;;;;;;;13.80;7.00;;;;;;;-4.03;78.12;100403.84;105950;1276;139637;-70
2022/01/07 04:28:38;;;;;;;15.60;7.70;;;;;;;-4.00;78.27;100400.68;106027;1276;112506;-70
2022/01/07 04:31:09;;;;;;;16.10;8.10;;;;;;;-3.99;78.03;100394.77;106440;1276;137897;-70
2022/01/07 04:33:41;;;;;;;19.60;8.20;;;;;;;-4.01;77.99;100387.25;107555;1276;108964;-70
2022/01/07 04:36:13;;;;;;;17.40;8.60;;;;;;;-4.04;77.92;100384.80;107540;1276;96101;-70
2022/01/07 04:38:45;;;;;;;17.90;8.30;;;;;;;-4.05;77.91;100383.73;107453;1276;138843;-71
2022/01/07 04:41:17;;;;;;;15.90;7.70;;;;;;;-4.09;77.70;100387.88;107372;1275;132396;-70
2022/01/07 04:43:48;;;;;;;21.80;8.90;;;;;;;-4.12;77.56;100386.94;107499;1274;138802;-70
2022/01/07 04:46:20;;;;;;;20.30;8.00;;;;;;;-4.16;77.44;100383.23;107496;1276;108822;-70
2022/01/07 04:48:52;;;;;;;15.60;8.00;;;;;;;-4.18;77.84;100383.17;107400;1274;139229;-71
2022/01/07 04:51:24;;;;;;;16.70;7.50;;;;;;;-4.18;77.86;100375.02;107523;1276;95804;-71
2022/01/07 04:53:55;;;;;;;18.70;7.60;;;;;;;-4.16;77.80;100375.10;106728;1276;110883;-70
2022/01/07 04:56:27;;;;;;;18.80;7.80;;;;;;;-4.13;77.68;100371.77;105916;1274;138568;-69
2022/01/07 04:58:59;;;;;;;15.90;7.10;;;;;;;-4.10;77.87;100369.86;106050;1276;108846;-69
2022/01/07 05:01:31;;;;;;;17.40;7.90;;;;;;;-4.07;77.68;100379.45;105914;1276;137901;-69
2022/01/07 05:04:03;;;;;;;17.20;7.90;;;;;;;-4.06;77.65;100377.77;106077;1276;97847;-69
2022/01/07 05:06:45;;;;;;;17.80;8.00;;;;;;;-4.08;77.75;100378.06;105876;1276;138398;-69
2022/01/07 05:09:18;;;;;;;16.80;7.90;;;;;;;-4.08;77.48;100376.88;106019;1276;108894;-69
2022/01/07 05:11:52;;;;;;;16.60;8.10;;;;;;;-4.09;77.29;100373.45;106052;1275;108424;-69
2022/01/07 05:14:24;;;;;;;19.10;8.30;;;;;;;-4.12;77.52;100373.34;105866;1276;138271;-69
2022/01/07 05:16:56;;;;;;;17.30;8.70;;;;;;;-4.16;77.69;100370.02;105899;1276;97719;-69
2022/01/07 05:19:29;;;;;;;17.90;8.70;;;;;;;-4.18;77.45;100375.39;105871;1276;138493;-69
2022/01/07 05:22:00;;;;;;;18.10;7.80;;;;;;;-4.20;77.57;100370.73;107538;1276;107950;-69
2022/01/07 05:24:32;;;;;;;18.80;7.80;;;;;;;-4.21;77.34;100366.64;106051;1276;139250;-69
2022/01/07 05:27:04;;;;;;;19.00;7.90;;;;;;;-4.20;77.57;100360.38;105968;1276;97839;-69
2022/01/07 05:29:36;;;;;;;16.80;8.20;;;;;;;-4.19;77.60;100358.72;106058;1276;97740;-69
2022/01/07 05:32:09;;;;;;;19.30;8.60;;;;;;;-4.18;77.45;100357.73;105929;1276;138489;-69
2022/01/07 05:34:41;;;;;;;15.40;8.10;;;;;;;-4.17;77.26;100357.92;107563;1276;109017;-70
2022/01/07 05:37:13;;;;;;;19.90;8.10;;;;;;;-4.15;77.50;100358.98;107387;1276;138195;-69
2022/01/07 05:39:45;;;;;;;17.60;7.90;;;;;;;-4.18;77.25;100358.23;107389;1275;96133;-69
2022/01/07 05:42:17;;;;;;;17.10;7.90;;;;;;;-4.21;77.09;100354.56;106072;1276;97889;-69
2022/01/07 05:44:49;;;;;;;18.50;8.60;;;;;;;-4.26;77.23;100357.34;106031;1276;137584;-69
2022/01/07 05:47:21;;;;;;;24.10;8.80;;;;;;;-4.26;77.25;100359.38;106107;1276;108374;-70
2022/01/07 05:49:53;;;;;;;15.60;7.30;;;;;;;-4.31;76.96;100361.63;106373;1276;138539;-69
2022/01/07 05:52:25;;;;;;;17.60;8.50;;;;;;;-4.36;77.18;100360.61;106041;1276;97816;-69
2022/01/07 05:54:56;;;;;;;22.50;8.50;;;;;;;-4.38;77.20;100369.52;105960;1276;138045;-69
2022/01/07 05:57:28;;;;;;;17.50;7.90;;;;;;;-4.40;76.98;100373.90;106037;1276;112488;-70
2022/01/07 06:00:00;;;;;;;19.40;8.20;;;;;;;-4.42;77.32;100379.94;106056;1276;109472;-69
2022/01/07 06:02:32;;;;;;;21.40;8.00;;;;;;;-4.43;77.07;100380.25;105871;1276;139593;-69
2022/01/07 06:05:04;;;;;;;21.10;8.70;;;;;;;-4.43;76.95;100378.74;106069;1276;97858;-69
2022/01/07 06:07:36;;;;;;;19.30;8.60;;;;;;;-4.40;77.19;100383.21;106246;1276;138837;-69
2022/01/07 06:10:10;;;;;;;16.50;8.40;;;;;;;-4.40;77.24;100381.88;106075;1276;112704;-69
2022/01/07 06:12:42;;;;;;;20.80;8.30;;;;;;;-4.37;77.03;100383.64;107416;1275;141175;-70
2022/01/07 06:15:14;;;;;;;21.60;9.00;;;;;;;-4.36;76.88;100388.45;106575;1274;109016;-69
2022/01/07 06:17:45;;;;;;;18.30;8.70;;;;;;;-4.33;77.01;100388.19;106101;1276;97843;-70
2022/01/07 06:20:18;;;;;;;20.00;8.70;;;;;;;-4.29;77.09;100391.55;105999;1276;138484;-69
2022/01/07 06:22:50;;;;;;;19.20;8.90;;;;;;;-4.30;76.73;100390.17;106338;1276;112460;-70
2022/01/07 06:25:22;;;;;;;19.10;8.40;;;;;;;-4.31;76.96;100391.48;106027;1277;138009;-70
2022/01/07 06:27:54;;;;;;;17.10;8.40;;;;;;;-4.33;76.88;100389.21;106006;1276;108846;-70
2022/01/07 06:30:26;;;;;;;16.90;8.30;;;;;;;-4.33;76.84;100388.88;105908;1276;138954;-69
2022/01/07 06:32:57;;;;;;;18.20;8.40;;;;;;;-4.33;76.67;100382.41;106018;1274;97852;-70
2022/01/07 06:35:29;;;;;;;20.00;8.40;;;;;;;-4.34;76.68;100381.02;106069;1276;112861;-71
2022/01/07 06:38:01;;;;;;;21.70;8.40;;;;;;;-4.35;76.78;100382.02;105856;1276;138941;-69
2022/01/07 06:40:33;;;;;;;17.50;7.90;;;;;;;-4.33;76.59;100386.49;106041;1276;108939;-70
2022/01/07 06:43:05;;;;;;;21.70;8.00;;;;;;;-4.30;76.69;100384.23;107387;1274;139105;-71
2022/01/07 06:45:37;;;;;;;16.90;7.10;;;;;;;-4.23;76.85;100384.07;107511;1275;96110;-70
2022/01/07 06:48:09;;;;;;;14.40;7.90;;;;;;;-4.17;76.97;100375.56;107011;1275;111496;-70
2022/01/07 06:50:41;;;;;;;17.90;7.90;;;;;;;-4.11;76.46;100377.61;106963;1274;137800;-70
2022/01/07 06:53:14;;;;;;;17.70;8.10;;;;;;;-4.05;76.78;100379.51;106803;1276;107924;-69
2022/01/07 06:56:00;;;;;;;19.50;8.10;;;;;;;-3.99;76.44;100381.70;105928;1277;138114;-69
2022/01/07 06:58:32;;;;;;;20.70;8.30;;;;;;;-3.93;76.52;100383.58;106017;1277;97727;-70
2022/01/07 07:01:05;;;;;;;15.60;8.10;;;;;;;-3.87;76.51;100387.33;105883;1277;138946;-69
2022/01/07 07:03:40;;;;;;;16.50;8.30;;;;;;;-3.83;76.46;100392.68;107532;1275;108388;-70
2022/01/07 07:06:14;;;;;;;18.60;8.40;;;;;;;-3.79;76.48;100395.70;107472;1276;106267;-70
2022/01/07 07:08:46;;;;;;;19.60;9.00;;;;;;;-3.72;76.66;100395.38;107348;1274;138268;-69
2022/01/07 07:11:18;;;;;;;14.20;7.30;;;;;;;-3.65;76.49;100397.27;107512;1275;95802;-70
2022/01/07 07:13:50;;;;;;;15.90;7.80;;;;;;;-3.58;76.42;100396.11;107357;1276;139395;-71
2022/01/07 07:16:21;;;;;;;15.60;8.10;;;;;;;-3.51;76.33;100396.12;107500;1274;108707;-70
2022/01/07 07:18:53;;;;;;;16.30;7.30;;;;;;;-3.36;76.42;100395.32;106592;1274;138787;-69
2022/01/07 07:21:25;;;;;;;12.80;7.10;;;;;;;-3.18;76.07;100400.55;106084;1275;97841;-70
2022/01/07 07:23:57;;;;;;;17.00;8.20;;;;;;;-2.97;75.59;100399.56;106579;1277;97861;-70
2022/01/07 07:26:29;;;;;;;16.40;7.50;;;;;;;-2.75;75.65;100394.82;107368;1276;138583;-71
2022/01/07 07:29:01;;;;;;;15.20;7.60;;;;;;;-2.56;74.99;100394.08;107490;1275;107784;-71
2022/01/07 07:31:37;;;;;;;19.50;8.40;;;;;;;-2.46;74.74;100397.04;107226;1275;137935;-69
2022/01/07 07:34:31;;;;;;;13.00;6.10;;;;;;;-2.36;74.83;100397.92;106040;1276;97844;-69
2022/01/07 07:37:03;;;;;;;17.00;8.10;;;;;;;-2.26;74.49;100394.41;105982;1277;138345;-71
2022/01/07 07:39:36;;;;;;;16.50;8.00;;;;;;;-2.18;74.64;100389.97;106150;1276;112089;-69
2022/01/07 07:42:09;;;;;;;14.70;8.00;;;;;;;-2.12;74.45;100393.19;106088;1277;107790;-71
2022/01/07 07:44:42;;;;;;;17.60;9.10;;;;;;;-2.08;73.85;100393.25;106290;1275;138345;-71
2022/01/07 07:47:14;;;;;;;25.50;9.10;;;;;;;-2.06;73.90;100393.30;106029;1277;97807;-69
2022/01/07 07:49:45;;;;;;;21.70;8.90;;;;;;;-2.11;73.65;100391.84;105953;1276;137931;-71
2022/01/07 07:52:18;;;;;;;20.00;9.50;;;;;;;-2.16;74.00;100389.34;106064;1276;111587;-70
2022/01/07 07:54:49;;;;;;;17.50;8.40;;;;;;;-2.15;74.08;100387.84;105827;1277;140439;-69
2022/01/07 07:57:22;;;;;;;18.10;8.60;;;;;;;-2.14;73.94;100382.57;106059;1277;108831;-68
2022/01/07 07:59:54;;;;;;;18.10;9.10;;;;;;;-2.14;74.38;100384.80;106062;1276;97884;-69
2022/01/07 08:02:30;;;;;;;19.90;9.60;;;;;;;-2.08;74.35;100383.03;105956;1277;138962;-70
2022/01/07 08:05:02;;;;;;;23.00;10.20;;;;;;;-1.99;74.83;100380.14;105996;1276;111260;-70
2022/01/07 08:07:33;;;;;;;19.70;9.10;;;;;;;-1.86;74.64;100381.95;105950;1276;138383;-70
2022/01/07 08:10:07;;;;;;;24.20;11.30;;;;;;;-1.75;74.59;100377.05;106132;1277;108942;-70
2022/01/07 08:18:18;;;;;;;20.30;10.30;;;;;;;-1.24;74.09;100381.59;106025;1277;112786;-70
2022/01/07 08:20:50;;;;;;;22.60;10.50;;;;;;;-1.00;74.10;100382.52;106528;1277;138383;-70
2022/01/07 08:23:23;;;;;;;24.30;10.90;;;;;;;-0.79;73.65;100374.84;106027;1276;108713;-69
2022/01/07 08:25:55;;;;;;;20.30;10.10;;;;;;;-0.55;73.70;100377.24;105907;1277;138159;-70
2022/01/07 08:28:32;;;;;;;22.70;10.00;;;;;;;-0.37;72.99;100375.45;106053;1277;97834;-69
2022/01/07 08:31:24;;;;;;;19.80;9.60;;;;;;;-0.19;72.90;100379.80;105926;1276;138159;-69
2022/01/07 08:36:48;;;;;;;21.00;9.50;;;;;;;0.09;71.88;100380.34;105878;1276;138059;-70
2022/01/07 08:39:19;;;;;;;25.00;10.10;;;;;;;0.13;71.63;100383.29;106106;1276;97837;-70
2022/01/07 08:41:52;;;;;;;17.60;9.30;;;;;;;0.17;71.36;100385.91;106035;1276;98381;-69
2022/01/07 08:44:26;;;;;;;17.60;8.80;;;;;;;0.17;71.20;100387.27;105984;1276;137635;-70
2022/01/07 08:46:57;;;;;;;16.20;9.20;;;;;;;0.11;70.83;100384.98;106040;1276;108863;-71
2022/01/07 08:49:29;;;;;;;18.40;8.90;;;;;;;0.07;70.76;100381.17;105895;1276;137804;-70
2022/01/07 08:52:01;;;;;;;21.10;9.60;;;;;;;0.05;70.63;100383.89;106053;1276;97863;-69
2022/01/07 08:54:33;;;;;;;17.60;9.50;;;;;;;0.03;70.68;100388.30;105955;1276;136695;-70
2022/01/07 08:57:05;;;;;;;16.30;9.10;;;;;;;0.08;70.83;100396.05;106110;1276;112278;-70
2022/01/07 08:59:37;;;;;;;19.10;9.70;;;;;;;0.12;70.92;100400.20;106065;1276;108503;-71
2022/01/07 09:02:10;;;;;;;18.00;9.20;;;;;;;0.12;70.52;100399.86;106687;1276;137895;-70
2022/01/07 09:04:42;;;;;;;19.10;9.60;;;;;;;0.03;70.27;100397.52;106019;1276;97880;-71
2022/01/07 09:07:14;;;;;;;19.20;9.20;;;;;;;-0.07;69.95;100399.11;105767;1276;137603;-71
2022/01/07 09:09:46;;;;;;;19.10;9.30;;;;;;;-0.17;70.13;100403.59;105987;1276;112489;-71
2022/01/07 09:12:17;;;;;;;18.10;8.80;;;;;;;-0.19;70.51;100406.96;105945;1276;109195;-70
2022/01/07 09:14:49;;;;;;;15.20;7.90;;;;;;;-0.21;70.14;100405.06;105925;1276;138489;-69
2022/01/07 09:17:21;;;;;;;17.30;9.00;;;;;;;-0.21;69.94;100403.00;106069;1276;97864;-71
2022/01/07 09:19:53;;;;;;;19.80;8.90;;;;;;;-0.21;69.94;100400.61;105853;1276;137851;-71
2022/01/07 09:22:25;;;;;;;19.40;9.00;;;;;;;-0.24;69.83;100398.70;106054;1276;112830;-71
2022/01/07 09:24:57;;;;;;;20.80;9.30;;;;;;;-0.25;69.89;100394.92;105857;1276;139368;-71
2022/01/07 09:27:29;;;;;;;18.80;9.20;;;;;;;-0.22;70.00;100389.83;105948;1276;107859;-69
2022/01/07 09:30:01;;;;;;;20.30;9.90;;;;;;;-0.20;69.89;100394.64;106004;1276;97881;-70
2022/01/07 09:32:33;;;;;;;22.80;9.40;;;;;;;-0.19;69.56;100394.85;105794;1276;138998;-70
2022/01/07 09:35:05;;;;;;;16.60;8.60;;;;;;;-0.21;69.27;100391.38;106067;1276;112534;-69
2022/01/07 09:37:37;;;;;;;19.00;9.70;;;;;;;-0.17;69.71;100389.75;107402;1276;138302;-71
2022/01/07 09:40:12;;;;;;;26.60;9.30;;;;;;;-0.07;69.98;100391.08;107485;1276;108216;-71
2022/01/07 09:42:57;;;;;;;21.00;9.80;;;;;;;0.14;69.66;100384.33;107333;1275;139631;-71
2022/01/07 09:45:30;;;;;;;24.60;10.20;;;;;;;0.31;68.79;100383.50;106145;1276;98370;-70
2022/01/07 09:48:03;;;;;;;21.00;9.50;;;;;;;0.48;68.97;100378.91;106113;1276;112318;-70
2022/01/07 09:50:36;;;;;;;18.20;9.20;;;;;;;0.62;68.12;100372.39;105906;1276;138103;-70
2022/01/07 09:53:12;;;;;;;20.50;9.60;;;;;;;0.75;68.18;100371.31;106017;1276;108893;-70
2022/01/07 09:55:44;;;;;;;22.50;10.20;;;;;;;0.87;67.82;100379.13;105927;1276;137830;-70
2022/01/07 09:58:16;;;;;;;20.10;9.10;;;;;;;1.13;67.27;100380.20;106047;1276;97754;-70
2022/01/07 10:00:48;;;;;;;20.20;9.60;;;;;;;1.35;67.11;100367.69;105932;1275;138893;-70
2022/01/07 10:03:20;;;;;;;19.70;9.90;;;;;;;1.63;67.03;100363.77;105982;1276;107882;-70
2022/01/07 10:05:53;;;;;;;21.80;9.20;;;;;;;2.07;66.90;100364.67;106035;1276;109047;-70
2022/01/07 10:08:27;;;;;;;24.10;9.10;;;;;;;2.41;65.62;100362.23;105922;1275;137794;-69
2022/01/07 10:11:18;;;;;;;19.50;9.50;;;;;;;2.76;65.29;100351.14;106112;1275;97720;-69
2022/01/07 10:13:51;;;;;;;18.60;9.50;;;;;;;3.04;64.63;100347.55;107386;1274;137639;-70
2022/01/07 10:16:24;;;;;;;16.20;9.20;;;;;;;3.18;64.17;100346.69;106340;1275;108901;-70
2022/01/07 10:18:56;;;;;;;19.10;8.30;;;;;;;3.32;63.90;100341.34;105904;1276;138093;-69
2022/01/07 10:21:28;;;;;;;16.00;8.50;;;;;;;3.40;62.95;100344.42;106065;1276;97971;-70
2022/01/07 10:24:06;;;;;;;20.30;9.00;;;;;;;3.34;62.65;100341.16;106038;1275;97842;-71
2022/01/07 10:26:38;;;;;;;16.00;8.90;;;;;;;3.21;62.51;100345.64;107449;1274;137985;-70
2022/01/07 10:29:31;;;;;;;16.40;8.60;;;;;;;3.09;61.52;100341.70;106075;1275;107948;-71
2022/01/07 10:32:22;;;;;;;16.80;8.70;;;;;;;2.93;61.45;100345.14;105842;1276;137756;-70
2022/01/07 10:35:06;;;;;;;16.60;8.50;;;;;;;2.80;61.30;100342.89;106492;1276;97835;-71
2022/01/07 10:37:46;;;;;;;19.60;9.40;;;;;;;2.91;61.77;100343.77;107406;1274;137441;-71
2022/01/07 10:40:33;;;;;;;15.50;8.90;;;;;;;3.14;61.35;100349.77;107093;1275;112379;-71
2022/01/07 10:43:18;;;;;;;16.30;8.60;;;;;;;3.25;60.65;100342.55;105786;1276;138298;-71
2022/01/07 10:45:51;;;;;;;19.40;8.70;;;;;;;3.23;60.23;100335.67;105854;1276;108262;-70
2022/01/07 10:48:40;;;;;;;16.20;8.90;;;;;;;3.22;60.54;100332.23;105878;1276;97863;-71
2022/01/07 10:51:14;;;;;;;16.70;8.80;;;;;;;3.37;60.64;100334.13;105807;1276;137428;-70
2022/01/07 10:53:50;;;;;;;18.40;8.70;;;;;;;3.50;59.95;100327.56;105922;1275;112398;-71
2022/01/07 10:56:23;;;;;;;18.60;8.90;;;;;;;3.66;60.20;100334.23;105863;1276;137667;-71
2022/01/07 10:59:05;;;;;;;20.90;9.90;;;;;;;3.80;60.29;100333.50;105820;1277;108829;-71
2022/01/07 11:01:42;;;;;;;20.40;10.00;;;;;;;3.87;60.01;100338.47;105809;1276;137711;-70
2022/01/07 11:04:17;;;;;;;22.90;10.40;;;;;;;3.88;59.38;100338.98;105888;1276;97778;-71
2022/01/07 11:06:52;;;;;;;23.80;10.10;;;;;;;3.85;59.51;100338.30;105775;1276;137881;-70
2022/01/07 11:09:24;;;;;;;22.00;9.90;;;;;;;3.85;59.70;100338.99;105906;1276;109336;-70
2022/01/07 11:12:00;;;;;;;17.40;9.70;;;;;;;3.86;59.50;100336.23;105955;1276;108890;-70
2022/01/07 11:14:35;;;;;;;20.90;9.50;;;;;;;3.81;59.22;100340.38;105793;1275;137873;-69
2022/01/07 11:17:11;;;;;;;20.00;9.10;;;;;;;3.74;59.28;100337.81;105871;1276;97732;-70
2022/01/07 11:19:44;;;;;;;20.70;9.30;;;;;;;3.73;59.38;100330.08;105820;1276;137707;-71
2022/01/07 11:22:16;;;;;;;17.80;9.10;;;;;;;3.78;59.26;100332.65;106085;1276;107681;-69
2022/01/07 11:24:50;;;;;;;16.90;8.70;;;;;;;3.81;59.19;100328.69;106042;1276;109021;-69
2022/01/07 11:27:25;;;;;;;15.70;8.10;;;;;;;3.88;58.78;100324.52;106286;1275;138580;-70
2022/01/07 11:30:15;;;;;;;15.80;8.30;;;;;;;4.01;58.65;100323.28;106058;1276;97906;-70
2022/01/07 11:32:48;;;;;;;17.30;7.70;;;;;;;4.14;58.22;100329.41;107384;1276;138185;-70
2022/01/07 11:35:47;;;;;;;18.80;8.20;;;;;;;4.19;57.74;100329.05;106251;1276;107531;-70
2022/01/07 11:38:44;;;;;;;17.50;7.90;;;;;;;4.10;56.35;100326.52;107370;1275;137695;-71
2022/01/07 11:41:38;;;;;;;14.00;8.00;;;;;;;3.98;56.92;100326.56;106340;1275;99455;-70